createdAt,value
2022-10-22T00:02:43.858Z,101394.75
2022-10-22T00:07:45.805Z,101385.13
2022-10-22T00:12:47.703Z,101374.66
2022-10-22T00:17:49.905Z,101361.94
2022-10-22T00:27:59.227Z,101355.44
2022-10-22T00:33:01.120Z,101360.00
2022-10-22T00:38:03.015Z,101367.31
2022-10-22T00:43:05.071Z,101368.47
2022-10-22T00:48:17.563Z,101376.94
2022-10-22T00:53:33.211Z,101398.25
2022-10-22T00:58:40.442Z,101385.22
2022-10-22T01:05:14.458Z,101387.63
2022-10-22T01:10:17.262Z,101387.78
2022-10-22T01:15:22.000Z,101391.19
2022-10-22T01:20:52.007Z,101375.88
2022-10-22T01:26:00.578Z,101383.16
2022-10-22T01:31:09.536Z,101366.03
2022-10-22T01:36:14.811Z,101365.06
2022-10-22T01:41:17.210Z,101362.28
2022-10-22T01:46:21.484Z,101352.66
2022-10-22T01:51:26.323Z,101355.75
2022-10-22T01:57:00.225Z,101351.50
2022-10-22T02:02:29.536Z,101354.91
2022-10-22T02:07:37.557Z,101350.00
2022-10-22T02:12:42.694Z,101333.53
2022-10-22T02:17:47.348Z,101340.84
2022-10-22T02:22:50.190Z,101333.84
2022-10-22T02:28:02.621Z,101335.94
2022-10-22T02:33:21.708Z,101326.59
2022-10-22T02:38:26.521Z,101321.22
2022-10-22T02:43:29.704Z,101320.53
2022-10-22T02:48:31.629Z,101328.34
2022-10-22T02:53:33.663Z,101327.84
2022-10-22T02:58:35.630Z,101329.59
2022-10-22T03:07:25.097Z,101328.94
2022-10-22T03:12:27.034Z,101343.72
2022-10-22T03:17:28.974Z,101345.50
2022-10-22T03:22:35.054Z,101340.28
2022-10-22T03:27:39.242Z,101342.53
2022-10-22T03:32:41.423Z,101349.00
2022-10-22T03:37:43.606Z,101351.91
2022-10-22T03:42:45.882Z,101351.72
2022-10-22T03:47:47.775Z,101353.16
2022-10-22T03:58:21.388Z,101343.66
2022-10-22T04:03:23.297Z,101367.56
2022-10-22T04:08:25.303Z,101367.38
2022-10-22T04:13:27.325Z,101385.91
2022-10-22T04:18:29.466Z,101402.81
2022-10-22T04:23:31.362Z,101408.34
2022-10-22T04:28:36.467Z,101420.53
2022-10-22T04:33:38.880Z,101428.34
2022-10-22T04:38:42.651Z,101419.03
2022-10-22T04:43:45.138Z,101417.97
2022-10-22T04:48:47.881Z,101431.91
2022-10-22T04:53:53.164Z,101437.25
2022-10-22T04:59:00.554Z,101437.88
2022-10-22T05:04:04.166Z,101448.75
2022-10-22T05:09:13.700Z,101464.00
2022-10-22T05:14:24.256Z,101446.09
2022-10-22T05:19:28.438Z,101424.59
2022-10-22T05:24:33.465Z,101440.97
2022-10-22T05:29:35.670Z,101426.47
2022-10-22T05:34:37.888Z,101441.41
2022-10-22T05:39:41.758Z,101422.88
2022-10-22T05:44:43.638Z,101434.25
2022-10-22T05:49:45.607Z,101433.22
2022-10-22T05:54:47.547Z,101429.94
2022-10-22T05:59:50.119Z,101428.31
2022-10-22T06:04:52.503Z,101430.84
2022-10-22T06:09:54.670Z,101428.38
2022-10-22T06:14:56.556Z,101448.34
2022-10-22T06:20:02.185Z,101443.44
2022-10-22T06:25:06.316Z,101445.69
2022-10-22T06:30:09.174Z,101454.28
2022-10-22T06:35:13.729Z,101453.78
2022-10-22T06:40:16.506Z,101463.19
2022-10-22T06:45:18.732Z,101467.88
2022-10-22T06:50:20.736Z,101482.31
2022-10-22T06:55:22.719Z,101488.66
2022-10-22T07:00:24.812Z,101501.28
2022-10-22T07:05:26.917Z,101509.97
2022-10-22T07:10:30.670Z,101519.81
2022-10-22T07:15:32.812Z,101525.44
2022-10-22T07:20:34.828Z,101544.06
2022-10-22T07:25:37.099Z,101538.63
2022-10-22T07:30:39.864Z,101542.34
2022-10-22T07:35:42.551Z,101543.75
2022-10-22T07:40:44.609Z,101553.69
2022-10-22T07:45:47.615Z,101553.88
2022-10-22T07:50:51.829Z,101554.59
2022-10-22T07:55:54.682Z,101567.50
2022-10-22T08:01:03.068Z,101564.28
2022-10-22T08:06:05.459Z,101565.03
2022-10-22T08:11:10.417Z,101582.22
2022-10-22T08:16:12.617Z,101588.03
2022-10-22T08:21:17.993Z,101597.72
2022-10-22T08:26:19.974Z,101601.28
2022-10-22T08:31:30.983Z,101596.25
2022-10-22T08:36:32.874Z,101603.91
2022-10-22T08:41:51.257Z,101616.84
2022-10-22T08:47:28.998Z,101610.34
2022-10-22T08:52:44.605Z,101609.44
2022-10-22T08:57:56.497Z,101608.41
2022-10-22T09:03:16.980Z,101620.09
2022-10-22T09:08:20.804Z,101627.34
2022-10-22T09:13:24.480Z,101615.47
2022-10-22T09:18:47.632Z,101630.50
2022-10-22T09:24:14.736Z,101614.81
2022-10-22T09:29:24.587Z,101612.38
2022-10-22T09:34:28.380Z,101613.38
2022-10-22T09:39:39.753Z,101611.59
2022-10-22T09:44:49.251Z,101609.50
2022-10-22T09:50:07.200Z,101605.09
2022-10-22T09:55:18.508Z,101603.78
2022-10-22T10:00:25.560Z,101608.84
2022-10-22T10:05:31.789Z,101598.56
2022-10-22T10:10:50.311Z,101602.72
2022-10-22T10:16:09.141Z,101608.19
2022-10-22T10:21:19.836Z,101605.59
2022-10-22T10:26:32.022Z,101609.06
2022-10-22T10:31:34.053Z,101609.28
2022-10-22T10:37:04.743Z,101599.00
2022-10-22T10:42:28.525Z,101599.88
2022-10-22T10:48:01.172Z,101603.31
2022-10-22T10:53:26.765Z,101601.38
2022-10-22T10:58:48.873Z,101596.28
2022-10-22T11:04:05.359Z,101591.38
2022-10-22T11:09:23.386Z,101589.56
2022-10-22T11:14:54.029Z,101581.47
2022-10-22T11:20:08.156Z,101573.59
2022-10-22T11:25:19.661Z,101567.31
2022-10-22T11:30:30.059Z,101549.47
2022-10-22T11:35:35.822Z,101546.78
2022-10-22T11:41:07.341Z,101544.69
2022-10-22T11:46:26.546Z,101545.13
2022-10-22T11:51:32.504Z,101531.09
2022-10-22T11:56:39.440Z,101521.66
2022-10-22T12:01:43.320Z,101518.25
2022-10-22T12:07:01.058Z,101509.66
2022-10-22T12:12:12.777Z,101505.66
2022-10-22T12:17:16.306Z,101491.94
2022-10-22T12:22:35.763Z,101500.78
2022-10-22T12:27:51.390Z,101488.91
2022-10-22T12:33:08.467Z,101472.84
2022-10-22T12:38:15.832Z,101466.53
2022-10-22T12:43:20.474Z,101465.47
2022-10-22T12:48:24.568Z,101448.22
2022-10-22T12:53:35.158Z,101448.41
2022-10-22T12:58:59.267Z,101437.94
2022-10-22T13:04:28.636Z,101438.22
2022-10-22T13:09:41.019Z,101429.66
2022-10-22T13:14:45.687Z,101428.84
2022-10-22T13:19:54.102Z,101425.41
2022-10-22T13:30:09.778Z,101404.34
2022-10-22T13:35:18.939Z,101391.34
2022-10-22T13:40:21.315Z,101400.91
2022-10-22T13:45:23.603Z,101391.09
2022-10-22T13:50:25.725Z,101384.41
2022-10-22T13:55:30.319Z,101375.72
2022-10-22T14:00:32.672Z,101369.44
2022-10-22T14:05:41.418Z,101362.13
2022-10-22T14:10:43.426Z,101362.03
2022-10-22T14:15:48.340Z,101366.34
2022-10-22T14:20:53.077Z,101365.88
2022-10-22T14:25:56.093Z,101363.34
2022-10-22T14:31:05.606Z,101354.06
2022-10-22T14:36:09.372Z,101346.91
2022-10-22T14:41:20.964Z,101357.50
2022-10-22T14:46:23.102Z,101357.16
2022-10-22T14:51:25.156Z,101355.66
2022-10-22T14:56:27.181Z,101349.00
2022-10-22T15:01:29.313Z,101341.81
2022-10-22T15:06:32.681Z,101351.81
2022-10-22T15:11:35.556Z,101351.69
2022-10-22T15:16:37.540Z,101348.31
2022-10-22T15:21:39.687Z,101348.97
2022-10-22T15:26:56.214Z,101338.97
2022-10-22T15:31:59.566Z,101358.16
2022-10-22T15:37:07.521Z,101333.66
2022-10-22T15:42:10.107Z,101334.66
2022-10-22T15:47:12.254Z,101338.69
2022-10-22T15:52:14.286Z,101344.78
2022-10-22T15:57:16.358Z,101345.47
2022-10-22T16:02:18.280Z,101343.84
2022-10-22T16:07:23.906Z,101350.78
2022-10-22T16:12:33.407Z,101350.44
2022-10-22T16:17:35.478Z,101350.31
2022-10-22T16:22:37.748Z,101339.06
2022-10-22T16:27:39.934Z,101342.03
2022-10-22T16:32:42.819Z,101347.47
2022-10-22T16:37:45.033Z,101354.53
2022-10-22T16:42:47.521Z,101362.88
2022-10-22T16:47:49.707Z,101364.69
2022-10-22T16:52:51.704Z,101351.00
2022-10-22T16:57:53.730Z,101341.91
2022-10-22T17:02:56.344Z,101363.88
2022-10-22T17:07:58.288Z,101354.44
2022-10-22T17:13:00.231Z,101358.56
2022-10-22T17:18:05.671Z,101373.47
2022-10-22T17:23:10.779Z,101374.94
2022-10-22T17:28:12.767Z,101375.63
2022-10-22T17:33:14.757Z,101383.13
2022-10-22T17:38:16.799Z,101390.66
2022-10-22T17:43:24.790Z,101392.28
2022-10-22T17:48:52.631Z,101397.03
2022-10-22T17:53:56.583Z,101416.00
2022-10-22T17:59:01.626Z,101418.28
2022-10-22T18:04:06.588Z,101421.38
2022-10-22T18:09:13.269Z,101430.03
2022-10-22T18:14:22.674Z,101434.78
2022-10-22T18:19:31.589Z,101446.25
2022-10-22T18:24:37.268Z,101450.97
2022-10-22T18:29:39.172Z,101453.13
2022-10-22T18:34:41.418Z,101465.34
2022-10-22T18:39:43.571Z,101466.69
2022-10-22T18:44:45.488Z,101472.09
2022-10-22T18:49:48.788Z,101472.41
2022-10-22T18:54:54.531Z,101473.56
2022-10-22T18:59:59.273Z,101471.44
2022-10-22T19:05:01.618Z,101482.88
2022-10-22T19:10:04.297Z,101489.25
2022-10-22T19:15:07.539Z,101486.81
2022-10-22T19:20:10.152Z,101482.72
2022-10-22T19:25:12.266Z,101484.34
2022-10-22T19:30:14.644Z,101483.88
2022-10-22T19:35:16.936Z,101486.66
2022-10-22T19:40:25.810Z,101481.91
2022-10-22T19:45:27.888Z,101501.69
2022-10-22T19:50:29.885Z,101502.34
2022-10-22T19:55:32.075Z,101502.00
2022-10-22T20:00:36.021Z,101492.38
2022-10-22T20:05:39.014Z,101497.94
2022-10-22T20:10:49.073Z,101501.38
2022-10-22T20:15:53.583Z,101498.59
2022-10-22T20:20:55.567Z,101491.56
2022-10-22T20:25:57.582Z,101491.25
2022-10-22T20:30:59.757Z,101502.03
2022-10-22T20:36:09.324Z,101498.13
2022-10-22T20:41:14.876Z,101489.44
2022-10-22T20:46:19.575Z,101491.56
2022-10-22T20:51:21.561Z,101491.06
2022-10-22T20:56:24.245Z,101496.13
2022-10-22T21:01:28.545Z,101487.31
2022-10-22T21:06:30.626Z,101503.63
2022-10-22T21:11:33.270Z,101498.53
2022-10-22T21:16:35.231Z,101501.28
2022-10-22T21:21:37.609Z,101495.72
2022-10-22T21:26:41.967Z,101497.34
2022-10-22T21:31:43.967Z,101513.31
2022-10-22T21:36:53.015Z,101504.16
2022-10-22T21:41:55.142Z,101515.75
2022-10-22T21:46:57.512Z,101507.09
2022-10-22T21:52:00.339Z,101508.00
2022-10-22T21:57:02.183Z,101496.75
2022-10-22T22:02:05.829Z,101502.13
2022-10-22T22:07:08.106Z,101506.66
2022-10-22T22:12:13.020Z,101516.94
2022-10-22T22:17:16.599Z,101507.31
2022-10-22T22:22:18.719Z,101528.66
2022-10-22T22:32:27.486Z,101523.75
2022-10-22T22:37:29.553Z,101508.09
2022-10-22T22:42:31.516Z,101527.50
2022-10-22T22:47:33.787Z,101519.50
2022-10-22T22:52:39.233Z,101517.84
2022-10-22T22:57:41.262Z,101498.13
2022-10-22T23:02:43.702Z,101486.25
2022-10-22T23:07:45.850Z,101479.88
2022-10-22T23:12:47.711Z,101485.09
2022-10-22T23:17:50.245Z,101472.38
2022-10-22T23:22:52.248Z,101473.19
2022-10-22T23:27:54.158Z,101483.47
2022-10-22T23:32:56.189Z,101480.53
2022-10-22T23:37:58.070Z,101477.56
2022-10-22T23:43:01.157Z,101460.13
2022-10-22T23:48:03.342Z,101472.13
2022-10-22T23:53:05.473Z,101477.00
2022-10-22T23:58:07.707Z,101474.88
